sensor_id;sensor_type;location;lat;lon;timestamp;pressure;altitude;pressure_sealevel;temperature;humidity
25510;BME280;13413;52.336;21.200;2023-04-09T00:00:30;101217.52;;;10.48;73.15
25510;BME280;13413;52.336;21.200;2023-04-09T00:03:24;101215.19;;;10.48;73.19
25510;BME280;13413;52.336;21.200;2023-04-09T00:06:18;101215.26;;;10.47;73.08
25510;BME280;13413;52.336;21.200;2023-04-09T00:09:12;101214.46;;;10.46;73.18
25510;BME280;13413;52.336;21.200;2023-04-09T00:12:06;101213.80;;;10.47;73.14
25510;BME280;13413;52.336;21.200;2023-04-09T00:15:00;101212.80;;;10.48;73.26
25510;BME280;13413;52.336;21.200;2023-04-09T00:17:52;101209.35;;;10.48;73.19
25510;BME280;13413;52.336;21.200;2023-04-09T00:27:06;101209.73;;;10.48;73.30
25510;BME280;13413;52.336;21.200;2023-04-09T00:30:00;101204.70;;;10.48;73.23
25510;BME280;13413;52.336;21.200;2023-04-09T00:32:54;101205.52;;;10.49;73.34
25510;BME280;13413;52.336;21.200;2023-04-09T00:35:47;101205.02;;;10.49;73.37
25510;BME280;13413;52.336;21.200;2023-04-09T00:38:41;101200.41;;;10.45;73.36
25510;BME280;13413;52.336;21.200;2023-04-09T00:41:36;101203.58;;;10.46;73.36
25510;BME280;13413;52.336;21.200;2023-04-09T00:44:29;101202.89;;;10.47;73.45
25510;BME280;13413;52.336;21.200;2023-04-09T00:47:37;101199.34;;;10.47;73.50
25510;BME280;13413;52.336;21.200;2023-04-09T00:50:30;101198.04;;;10.46;73.67
25510;BME280;13413;52.336;21.200;2023-04-09T00:53:28;101191.52;;;10.42;73.69
25510;BME280;13413;52.336;21.200;2023-04-09T00:56:29;101188.21;;;10.33;73.68
25510;BME280;13413;52.336;21.200;2023-04-09T01:02:19;101193.45;;;10.30;73.80
25510;BME280;13413;52.336;21.200;2023-04-09T01:05:13;101198.04;;;10.34;73.74
25510;BME280;13413;52.336;21.200;2023-04-09T01:08:15;101201.48;;;10.38;73.60
25510;BME280;13413;52.336;21.200;2023-04-09T01:11:19;101198.67;;;10.38;73.73
25510;BME280;13413;52.336;21.200;2023-04-09T01:14:19;101199.77;;;10.38;73.59
25510;BME280;13413;52.336;21.200;2023-04-09T01:17:20;101203.30;;;10.38;73.81
25510;BME280;13413;52.336;21.200;2023-04-09T01:20:21;101199.57;;;10.26;74.01
25510;BME280;13413;52.336;21.200;2023-04-09T01:23:25;101204.04;;;10.23;74.01
25510;BME280;13413;52.336;21.200;2023-04-09T01:26:34;101204.01;;;10.26;73.93
25510;BME280;13413;52.336;21.200;2023-04-09T01:29:33;101203.77;;;10.30;73.73
25510;BME280;13413;52.336;21.200;2023-04-09T01:32:28;101204.74;;;10.32;73.77
25510;BME280;13413;52.336;21.200;2023-04-09T01:35:22;101209.27;;;10.33;73.79
25510;BME280;13413;52.336;21.200;2023-04-09T01:38:19;101208.52;;;10.30;73.95
25510;BME280;13413;52.336;21.200;2023-04-09T01:41:16;101206.21;;;10.21;73.97
25510;BME280;13413;52.336;21.200;2023-04-09T01:44:12;101203.20;;;10.19;74.11
25510;BME280;13413;52.336;21.200;2023-04-09T01:47:07;101204.77;;;10.23;74.19
25510;BME280;13413;52.336;21.200;2023-04-09T01:50:03;101202.30;;;10.25;74.26
25510;BME280;13413;52.336;21.200;2023-04-09T01:52:57;101205.16;;;10.15;74.30
25510;BME280;13413;52.336;21.200;2023-04-09T01:55:52;101205.16;;;10.14;74.21
25510;BME280;13413;52.336;21.200;2023-04-09T01:58:45;101209.15;;;10.16;74.26
25510;BME280;13413;52.336;21.200;2023-04-09T02:01:45;101212.48;;;10.20;74.39
25510;BME280;13413;52.336;21.200;2023-04-09T02:04:42;101213.83;;;10.19;74.54
25510;BME280;13413;52.336;21.200;2023-04-09T02:07:53;101214.58;;;10.10;74.64
25510;BME280;13413;52.336;21.200;2023-04-09T02:10:53;101220.27;;;10.06;74.63
25510;BME280;13413;52.336;21.200;2023-04-09T02:13:47;101219.67;;;10.06;74.63
25510;BME280;13413;52.336;21.200;2023-04-09T02:16:42;101219.64;;;10.08;74.69
25510;BME280;13413;52.336;21.200;2023-04-09T02:19:43;101221.49;;;10.11;74.91
25510;BME280;13413;52.336;21.200;2023-04-09T02:22:36;101222.85;;;10.06;74.96
25510;BME280;13413;52.336;21.200;2023-04-09T02:25:31;101221.02;;;10.09;74.86
25510;BME280;13413;52.336;21.200;2023-04-09T02:28:24;101219.28;;;10.10;74.92
25510;BME280;13413;52.336;21.200;2023-04-09T02:31:18;101223.81;;;10.09;75.05
25510;BME280;13413;52.336;21.200;2023-04-09T02:34:12;101222.90;;;10.06;75.02
25510;BME280;13413;52.336;21.200;2023-04-09T02:37:07;101216.48;;;10.05;75.22
25510;BME280;13413;52.336;21.200;2023-04-09T02:39:59;101217.26;;;10.01;75.35
25510;BME280;13413;52.336;21.200;2023-04-09T02:48:25;101218.16;;;9.93;75.74
25510;BME280;13413;52.336;21.200;2023-04-09T02:51:19;101222.41;;;9.89;75.67
25510;BME280;13413;52.336;21.200;2023-04-09T02:54:13;101218.07;;;9.94;75.47
25510;BME280;13413;52.336;21.200;2023-04-09T02:57:07;101215.38;;;9.96;75.64
25510;BME280;13413;52.336;21.200;2023-04-09T03:00:01;101218.05;;;10.00;75.43
25510;BME280;13413;52.336;21.200;2023-04-09T03:02:55;101214.41;;;10.04;75.36
25510;BME280;13413;52.336;21.200;2023-04-09T03:05:49;101214.57;;;10.08;75.35
25510;BME280;13413;52.336;21.200;2023-04-09T03:08:43;101214.52;;;10.12;75.33
25510;BME280;13413;52.336;21.200;2023-04-09T03:11:37;101210.69;;;10.15;75.26
25510;BME280;13413;52.336;21.200;2023-04-09T03:14:31;101206.55;;;10.14;75.32
25510;BME280;13413;52.336;21.200;2023-04-09T03:17:25;101206.71;;;10.07;75.36
25510;BME280;13413;52.336;21.200;2023-04-09T03:20:19;101204.60;;;10.05;75.41
25510;BME280;13413;52.336;21.200;2023-04-09T03:23:13;101204.16;;;10.04;75.51
25510;BME280;13413;52.336;21.200;2023-04-09T03:26:07;101202.84;;;9.98;75.63
25510;BME280;13413;52.336;21.200;2023-04-09T03:29:02;101201.13;;;9.94;75.72
25510;BME280;13413;52.336;21.200;2023-04-09T03:31:56;101199.71;;;9.89;75.80
25510;BME280;13413;52.336;21.200;2023-04-09T03:34:50;101204.31;;;9.87;75.83
25510;BME280;13413;52.336;21.200;2023-04-09T03:37:44;101215.05;;;9.86;75.69
25510;BME280;13413;52.336;21.200;2023-04-09T03:40:38;101207.72;;;9.88;75.76
25510;BME280;13413;52.336;21.200;2023-04-09T03:43:32;101205.17;;;9.87;75.86
25510;BME280;13413;52.336;21.200;2023-04-09T03:46:26;101211.63;;;9.82;75.83
25510;BME280;13413;52.336;21.200;2023-04-09T03:49:20;101211.40;;;9.83;75.98
25510;BME280;13413;52.336;21.200;2023-04-09T03:52:14;101211.85;;;9.87;75.99
25510;BME280;13413;52.336;21.200;2023-04-09T03:55:10;101204.37;;;9.88;75.86
25510;BME280;13413;52.336;21.200;2023-04-09T03:58:04;101206.23;;;9.87;76.02
25510;BME280;13413;52.336;21.200;2023-04-09T04:00:58;101199.99;;;9.87;75.92
25510;BME280;13413;52.336;21.200;2023-04-09T04:03:52;101203.16;;;9.89;75.91
25510;BME280;13413;52.336;21.200;2023-04-09T04:06:46;101203.95;;;9.90;76.06
25510;BME280;13413;52.336;21.200;2023-04-09T04:09:40;101203.67;;;9.88;76.15
25510;BME280;13413;52.336;21.200;2023-04-09T04:12:34;101201.07;;;9.82;76.21
25510;BME280;13413;52.336;21.200;2023-04-09T04:15:28;101201.29;;;9.85;76.29
25510;BME280;13413;52.336;21.200;2023-04-09T04:18:22;101203.26;;;9.89;76.29
25510;BME280;13413;52.336;21.200;2023-04-09T04:21:17;101209.86;;;9.93;76.25
25510;BME280;13413;52.336;21.200;2023-04-09T04:24:11;101207.99;;;9.96;76.20
25510;BME280;13413;52.336;21.200;2023-04-09T04:27:05;101207.35;;;9.99;76.22
25510;BME280;13413;52.336;21.200;2023-04-09T04:29:59;101212.40;;;10.02;76.26
25510;BME280;13413;52.336;21.200;2023-04-09T04:32:53;101214.77;;;10.04;76.05
25510;BME280;13413;52.336;21.200;2023-04-09T04:35:47;101219.02;;;10.08;76.07
25510;BME280;13413;52.336;21.200;2023-04-09T04:38:41;101221.47;;;10.11;75.91
25510;BME280;13413;52.336;21.200;2023-04-09T04:41:36;101223.46;;;10.14;75.99
25510;BME280;13413;52.336;21.200;2023-04-09T04:44:30;101223.66;;;10.16;76.08
25510;BME280;13413;52.336;21.200;2023-04-09T04:47:24;101227.21;;;10.16;76.22
25510;BME280;13413;52.336;21.200;2023-04-09T04:50:18;101230.59;;;10.12;76.31
25510;BME280;13413;52.336;21.200;2023-04-09T04:53:12;101229.95;;;10.11;76.42
25510;BME280;13413;52.336;21.200;2023-04-09T04:59:14;101235.22;;;10.19;76.53
25510;BME280;13413;52.336;21.200;2023-04-09T05:08:03;101235.92;;;10.19;77.05
25510;BME280;13413;52.336;21.200;2023-04-09T05:10:57;101241.04;;;10.21;77.01
25510;BME280;13413;52.336;21.200;2023-04-09T05:13:51;101235.83;;;10.27;76.85
25510;BME280;13413;52.336;21.200;2023-04-09T05:16:45;101232.66;;;10.33;76.70
25510;BME280;13413;52.336;21.200;2023-04-09T05:19:39;101238.32;;;10.39;76.85
25510;BME280;13413;52.336;21.200;2023-04-09T05:22:33;101233.71;;;10.38;76.98
25510;BME280;13413;52.336;21.200;2023-04-09T05:25:27;101234.10;;;10.37;77.06
25510;BME280;13413;52.336;21.200;2023-04-09T05:28:21;101234.69;;;10.37;77.01
25510;BME280;13413;52.336;21.200;2023-04-09T05:31:15;101233.58;;;10.34;76.93
25510;BME280;13413;52.336;21.200;2023-04-09T05:34:09;101236.04;;;10.34;77.02
25510;BME280;13413;52.336;21.200;2023-04-09T05:37:03;101231.98;;;10.34;76.99
25510;BME280;13413;52.336;21.200;2023-04-09T05:39:57;101234.63;;;10.37;77.05
25510;BME280;13413;52.336;21.200;2023-04-09T05:42:51;101236.28;;;10.39;77.40
25510;BME280;13413;52.336;21.200;2023-04-09T05:45:45;101237.54;;;10.39;77.65
25510;BME280;13413;52.336;21.200;2023-04-09T05:48:39;101239.02;;;10.34;77.63
25510;BME280;13413;52.336;21.200;2023-04-09T05:51:33;101242.64;;;10.28;77.99
25510;BME280;13413;52.336;21.200;2023-04-09T05:54:27;101242.27;;;10.25;78.29
25510;BME280;13413;52.336;21.200;2023-04-09T05:57:21;101244.88;;;10.23;78.01
25510;BME280;13413;52.336;21.200;2023-04-09T06:03:10;101243.32;;;10.34;78.14
25510;BME280;13413;52.336;21.200;2023-04-09T06:06:05;101246.52;;;10.37;78.04
25510;BME280;13413;52.336;21.200;2023-04-09T06:08:58;101245.54;;;10.40;77.85
25510;BME280;13413;52.336;21.200;2023-04-09T06:11:51;101250.34;;;10.41;77.89
25510;BME280;13413;52.336;21.200;2023-04-09T06:14:45;101250.97;;;10.44;77.68
25510;BME280;13413;52.336;21.200;2023-04-09T06:17:40;101251.21;;;10.53;78.02
25510;BME280;13413;52.336;21.200;2023-04-09T06:20:34;101255.58;;;10.61;77.61
25510;BME280;13413;52.336;21.200;2023-04-09T06:23:28;101258.23;;;10.61;77.33
25510;BME280;13413;52.336;21.200;2023-04-09T06:26:23;101262.34;;;10.62;77.13
25510;BME280;13413;52.336;21.200;2023-04-09T06:29:17;101267.35;;;10.67;77.11
25510;BME280;13413;52.336;21.200;2023-04-09T06:32:11;101268.75;;;10.71;77.01
25510;BME280;13413;52.336;21.200;2023-04-09T06:35:07;101268.96;;;10.79;77.00
25510;BME280;13413;52.336;21.200;2023-04-09T06:38:01;101267.19;;;10.86;77.01
25510;BME280;13413;52.336;21.200;2023-04-09T06:40:56;101271.52;;;10.92;77.00
25510;BME280;13413;52.336;21.200;2023-04-09T06:43:50;101271.67;;;11.01;77.32
25510;BME280;13413;52.336;21.200;2023-04-09T06:46:44;101275.54;;;11.13;77.34
25510;BME280;13413;52.336;21.200;2023-04-09T06:49:38;101276.30;;;11.18;77.13
25510;BME280;13413;52.336;21.200;2023-04-09T06:52:32;101276.95;;;11.19;77.05
25510;BME280;13413;52.336;21.200;2023-04-09T06:55:26;101276.88;;;11.25;77.16
25510;BME280;13413;52.336;21.200;2023-04-09T06:58:20;101273.16;;;11.35;76.99
25510;BME280;13413;52.336;21.200;2023-04-09T07:01:14;101274.60;;;11.35;76.41
25510;BME280;13413;52.336;21.200;2023-04-09T07:04:08;101268.61;;;11.38;76.66
25510;BME280;13413;52.336;21.200;2023-04-09T07:07:02;101279.55;;;11.48;76.99
25510;BME280;13413;52.336;21.200;2023-04-09T07:09:57;101277.74;;;11.57;76.88
25510;BME280;13413;52.336;21.200;2023-04-09T07:12:50;101277.05;;;11.58;76.59
25510;BME280;13413;52.336;21.200;2023-04-09T07:15:45;101280.60;;;11.64;76.29
25510;BME280;13413;52.336;21.200;2023-04-09T07:18:36;101287.23;;;11.75;76.37
25510;BME280;13413;52.336;21.200;2023-04-09T07:21:29;101287.13;;;11.77;75.87
25510;BME280;13413;52.336;21.200;2023-04-09T07:26:48;101287.16;;;11.82;75.72
25510;BME280;13413;52.336;21.200;2023-04-09T07:29:45;101291.42;;;11.84;75.65
25510;BME280;13413;52.336;21.200;2023-04-09T07:32:40;101291.63;;;11.90;75.25
25510;BME280;13413;52.336;21.200;2023-04-09T07:35:36;101286.73;;;11.99;75.29
25510;BME280;13413;52.336;21.200;2023-04-09T07:38:30;101288.95;;;12.09;75.08
25510;BME280;13413;52.336;21.200;2023-04-09T07:41:24;101290.94;;;12.17;74.74
25510;BME280;13413;52.336;21.200;2023-04-09T07:44:18;101294.68;;;12.28;74.42
25510;BME280;13413;52.336;21.200;2023-04-09T07:47:12;101295.22;;;12.33;74.26
25510;BME280;13413;52.336;21.200;2023-04-09T07:50:08;101293.71;;;12.42;74.31
25510;BME280;13413;52.336;21.200;2023-04-09T07:53:02;101293.90;;;12.50;74.26
25510;BME280;13413;52.336;21.200;2023-04-09T07:55:56;101290.83;;;12.59;74.23
25510;BME280;13413;52.336;21.200;2023-04-09T07:58:49;101287.31;;;12.68;73.75
25510;BME280;13413;52.336;21.200;2023-04-09T08:01:44;101287.38;;;12.71;73.64
25510;BME280;13413;52.336;21.200;2023-04-09T08:04:40;101288.80;;;12.82;73.32
25510;BME280;13413;52.336;21.200;2023-04-09T08:07:34;101293.14;;;12.89;72.68
25510;BME280;13413;52.336;21.200;2023-04-09T08:10:28;101297.03;;;13.00;73.48
25510;BME280;13413;52.336;21.200;2023-04-09T08:13:23;101299.38;;;13.20;73.24
25510;BME280;13413;52.336;21.200;2023-04-09T08:16:17;101302.88;;;13.30;72.53
25510;BME280;13413;52.336;21.200;2023-04-09T08:19:11;101303.85;;;13.30;71.74
25510;BME280;13413;52.336;21.200;2023-04-09T08:22:06;101306.39;;;13.29;71.52
25510;BME280;13413;52.336;21.200;2023-04-09T08:25:00;101302.77;;;13.32;71.84
25510;BME280;13413;52.336;21.200;2023-04-09T08:27:54;101302.20;;;13.35;71.09
25510;BME280;13413;52.336;21.200;2023-04-09T08:30:48;101298.36;;;13.43;71.74
25510;BME280;13413;52.336;21.200;2023-04-09T08:33:41;101292.77;;;13.61;71.86
25510;BME280;13413;52.336;21.200;2023-04-09T08:36:36;101299.07;;;13.84;71.18
25510;BME280;13413;52.336;21.200;2023-04-09T08:39:30;101300.26;;;14.03;70.37
25510;BME280;13413;52.336;21.200;2023-04-09T08:42:25;101299.75;;;14.13;69.33
25510;BME280;13413;52.336;21.200;2023-04-09T08:45:20;101295.52;;;14.22;69.88
25510;BME280;13413;52.336;21.200;2023-04-09T08:48:16;101296.73;;;14.35;68.82
25510;BME280;13413;52.336;21.200;2023-04-09T08:51:13;101304.95;;;14.33;68.70
25510;BME280;13413;52.336;21.200;2023-04-09T08:54:07;101303.00;;;14.39;68.92
25510;BME280;13413;52.336;21.200;2023-04-09T08:57:05;101301.88;;;14.43;68.89
25510;BME280;13413;52.336;21.200;2023-04-09T08:59:59;101302.73;;;14.49;68.67
25510;BME280;13413;52.336;21.200;2023-04-09T09:03:06;101300.95;;;14.55;68.52
25510;BME280;13413;52.336;21.200;2023-04-09T09:06:01;101305.14;;;14.51;68.20
25510;BME280;13413;52.336;21.200;2023-04-09T09:09:06;101308.50;;;14.55;68.33
25510;BME280;13413;52.336;21.200;2023-04-09T09:12:00;101308.20;;;14.52;67.37
25510;BME280;13413;52.336;21.200;2023-04-09T09:14:54;101308.05;;;14.48;67.84
25510;BME280;13413;52.336;21.200;2023-04-09T09:17:55;101309.64;;;14.50;68.02
25510;BME280;13413;52.336;21.200;2023-04-09T09:23:45;101317.33;;;14.58;67.77
25510;BME280;13413;52.336;21.200;2023-04-09T09:26:39;101316.73;;;14.60;67.13
25510;BME280;13413;52.336;21.200;2023-04-09T09:29:37;101319.08;;;14.59;66.65
25510;BME280;13413;52.336;21.200;2023-04-09T09:32:35;101319.42;;;14.59;66.77
25510;BME280;13413;52.336;21.200;2023-04-09T09:35:29;101316.17;;;14.65;66.21
25510;BME280;13413;52.336;21.200;2023-04-09T09:38:21;101310.25;;;14.79;66.58
25510;BME280;13413;52.336;21.200;2023-04-09T09:46:33;101307.69;;;15.41;65.92
25510;BME280;13413;52.336;21.200;2023-04-09T09:49:27;101306.67;;;15.76;66.19
25510;BME280;13413;52.336;21.200;2023-04-09T09:52:25;101305.20;;;16.12;64.51
25510;BME280;13413;52.336;21.200;2023-04-09T09:55:20;101300.34;;;16.38;64.07
25510;BME280;13413;52.336;21.200;2023-04-09T09:58:23;101299.14;;;16.46;63.88
25510;BME280;13413;52.336;21.200;2023-04-09T10:01:22;101302.13;;;16.47;63.37
25510;BME280;13413;52.336;21.200;2023-04-09T10:04:18;101301.77;;;16.47;62.97
25510;BME280;13413;52.336;21.200;2023-04-09T10:07:14;101302.92;;;16.22;62.15
25510;BME280;13413;52.336;21.200;2023-04-09T10:10:09;101302.88;;;16.04;62.33
25510;BME280;13413;52.336;21.200;2023-04-09T10:13:06;101304.36;;;16.00;62.65
25510;BME280;13413;52.336;21.200;2023-04-09T10:16:02;101298.65;;;16.07;62.86
25510;BME280;13413;52.336;21.200;2023-04-09T10:18:58;101303.23;;;16.09;61.80
25510;BME280;13413;52.336;21.200;2023-04-09T10:21:55;101303.52;;;16.10;61.15
25510;BME280;13413;52.336;21.200;2023-04-09T10:24:51;101303.82;;;16.09;61.50
25510;BME280;13413;52.336;21.200;2023-04-09T10:27:45;101300.41;;;16.15;61.52
25510;BME280;13413;52.336;21.200;2023-04-09T10:30:38;101298.10;;;16.19;61.49
25510;BME280;13413;52.336;21.200;2023-04-09T10:33:34;101301.98;;;16.22;61.15
25510;BME280;13413;52.336;21.200;2023-04-09T10:36:35;101306.29;;;16.25;61.34
25510;BME280;13413;52.336;21.200;2023-04-09T10:39:32;101297.02;;;16.38;61.09
25510;BME280;13413;52.336;21.200;2023-04-09T10:42:31;101296.60;;;16.65;61.19
25510;BME280;13413;52.336;21.200;2023-04-09T10:45:40;101289.85;;;16.90;60.46
25510;BME280;13413;52.336;21.200;2023-04-09T10:48:37;101289.20;;;17.08;60.10
25510;BME280;13413;52.336;21.200;2023-04-09T10:51:38;101284.91;;;17.12;60.32
25510;BME280;13413;52.336;21.200;2023-04-09T10:54:44;101287.70;;;17.17;60.17
25510;BME280;13413;52.336;21.200;2023-04-09T10:57:39;101283.52;;;17.15;59.71
25510;BME280;13413;52.336;21.200;2023-04-09T11:00:40;101287.31;;;17.09;59.34
25510;BME280;13413;52.336;21.200;2023-04-09T11:03:40;101284.52;;;17.08;59.44
25510;BME280;13413;52.336;21.200;2023-04-09T11:06:39;101279.49;;;17.06;59.04
25510;BME280;13413;52.336;21.200;2023-04-09T11:09:36;101272.79;;;16.91;58.30
25510;BME280;13413;52.336;21.200;2023-04-09T11:12:30;101272.80;;;16.83;59.08
25510;BME280;13413;52.336;21.200;2023-04-09T11:15:24;101271.23;;;17.05;59.20
25510;BME280;13413;52.336;21.200;2023-04-09T11:18:22;101272.91;;;17.50;58.90
25510;BME280;13413;52.336;21.200;2023-04-09T11:21:18;101273.58;;;17.82;57.96
25510;BME280;13413;52.336;21.200;2023-04-09T11:24:12;101274.35;;;18.01;56.94
25510;BME280;13413;52.336;21.200;2023-04-09T11:27:06;101275.46;;;17.98;56.05
25510;BME280;13413;52.336;21.200;2023-04-09T11:30:00;101275.11;;;17.79;56.34
25510;BME280;13413;52.336;21.200;2023-04-09T11:32:54;101273.64;;;17.56;55.40
25510;BME280;13413;52.336;21.200;2023-04-09T11:35:48;101277.54;;;17.27;55.61
25510;BME280;13413;52.336;21.200;2023-04-09T11:38:43;101272.41;;;17.19;56.25
25510;BME280;13413;52.336;21.200;2023-04-09T11:41:38;101271.14;;;17.14;56.51
25510;BME280;13413;52.336;21.200;2023-04-09T11:44:32;101268.33;;;17.06;56.73
25510;BME280;13413;52.336;21.200;2023-04-09T11:47:26;101267.17;;;17.01;56.62
25510;BME280;13413;52.336;21.200;2023-04-09T11:50:21;101270.00;;;16.97;56.69
25510;BME280;13413;52.336;21.200;2023-04-09T11:53:21;101269.33;;;16.96;56.71
25510;BME280;13413;52.336;21.200;2023-04-09T11:56:14;101271.64;;;16.96;56.46
25510;BME280;13413;52.336;21.200;2023-04-09T12:08:09;101262.10;;;17.19;56.72
25510;BME280;13413;52.336;21.200;2023-04-09T12:11:10;101262.67;;;17.24;55.97
25510;BME280;13413;52.336;21.200;2023-04-09T12:14:04;101262.58;;;17.15;55.72
25510;BME280;13413;52.336;21.200;2023-04-09T12:16:58;101260.19;;;17.15;55.92
25510;BME280;13413;52.336;21.200;2023-04-09T12:19:52;101261.07;;;17.11;55.14
25510;BME280;13413;52.336;21.200;2023-04-09T12:22:46;101261.55;;;16.98;55.44
25510;BME280;13413;52.336;21.200;2023-04-09T12:25:41;101261.03;;;16.91;55.27
25510;BME280;13413;52.336;21.200;2023-04-09T12:28:36;101258.20;;;16.91;55.85
25510;BME280;13413;52.336;21.200;2023-04-09T12:31:30;101258.95;;;16.93;55.01
25510;BME280;13413;52.336;21.200;2023-04-09T12:34:24;101252.81;;;16.88;55.24
25510;BME280;13413;52.336;21.200;2023-04-09T12:37:18;101252.13;;;16.95;55.15
25510;BME280;13413;52.336;21.200;2023-04-09T12:40:12;101249.41;;;17.09;55.60
25510;BME280;13413;52.336;21.200;2023-04-09T12:43:06;101254.61;;;17.28;55.21
25510;BME280;13413;52.336;21.200;2023-04-09T12:46:00;101251.77;;;17.28;54.32
25510;BME280;13413;52.336;21.200;2023-04-09T12:48:55;101250.85;;;17.28;54.91
25510;BME280;13413;52.336;21.200;2023-04-09T12:51:49;101250.61;;;17.33;54.25
25510;BME280;13413;52.336;21.200;2023-04-09T12:54:42;101244.36;;;17.34;54.58
25510;BME280;13413;52.336;21.200;2023-04-09T12:57:38;101245.16;;;17.42;54.24
25510;BME280;13413;52.336;21.200;2023-04-09T13:00:32;101245.34;;;17.45;54.07
25510;BME280;13413;52.336;21.200;2023-04-09T13:03:26;101243.46;;;17.42;53.31
25510;BME280;13413;52.336;21.200;2023-04-09T13:06:37;101240.77;;;17.31;53.16
25510;BME280;13413;52.336;21.200;2023-04-09T13:09:33;101238.77;;;17.22;53.45
25510;BME280;13413;52.336;21.200;2023-04-09T13:12:28;101238.27;;;17.26;53.59
25510;BME280;13413;52.336;21.200;2023-04-09T13:15:22;101235.88;;;17.45;54.04
25510;BME280;13413;52.336;21.200;2023-04-09T13:18:16;101235.66;;;17.56;53.90
25510;BME280;13413;52.336;21.200;2023-04-09T13:21:10;101237.29;;;17.64;53.20
25510;BME280;13413;52.336;21.200;2023-04-09T13:24:05;101235.67;;;17.58;52.85
25510;BME280;13413;52.336;21.200;2023-04-09T13:26:59;101230.70;;;17.55;53.36
25510;BME280;13413;52.336;21.200;2023-04-09T13:29:53;101229.02;;;17.60;52.70
25510;BME280;13413;52.336;21.200;2023-04-09T13:32:47;101227.05;;;17.57;52.46
25510;BME280;13413;52.336;21.200;2023-04-09T13:35:41;101230.43;;;17.63;53.03
25510;BME280;13413;52.336;21.200;2023-04-09T13:38:34;101230.38;;;17.69;52.73
25510;BME280;13413;52.336;21.200;2023-04-09T13:41:28;101228.85;;;17.69;53.26
25510;BME280;13413;52.336;21.200;2023-04-09T13:44:22;101225.33;;;17.64;52.66
25510;BME280;13413;52.336;21.200;2023-04-09T13:47:17;101229.45;;;17.37;52.07
25510;BME280;13413;52.336;21.200;2023-04-09T13:50:12;101227.00;;;17.13;52.22
25510;BME280;13413;52.336;21.200;2023-04-09T13:53:06;101218.10;;;17.01;52.33
25510;BME280;13413;52.336;21.200;2023-04-09T13:56:00;101222.80;;;17.13;52.13
25510;BME280;13413;52.336;21.200;2023-04-09T13:58:54;101222.77;;;17.31;51.69
25510;BME280;13413;52.336;21.200;2023-04-09T14:01:48;101228.67;;;17.47;52.01
25510;BME280;13413;52.336;21.200;2023-04-09T14:07:55;101220.84;;;17.33;52.18
25510;BME280;13413;52.336;21.200;2023-04-09T14:10:49;101222.15;;;17.22;52.56
25510;BME280;13413;52.336;21.200;2023-04-09T14:13:43;101217.17;;;17.18;52.82
25510;BME280;13413;52.336;21.200;2023-04-09T14:16:37;101215.83;;;17.28;52.91
25510;BME280;13413;52.336;21.200;2023-04-09T14:19:29;101214.03;;;17.23;52.80
25510;BME280;13413;52.336;21.200;2023-04-09T14:27:26;101208.83;;;17.32;53.01
25510;BME280;13413;52.336;21.200;2023-04-09T14:30:19;101211.42;;;17.37;52.95
25510;BME280;13413;52.336;21.200;2023-04-09T14:33:13;101213.23;;;17.45;52.84
25510;BME280;13413;52.336;21.200;2023-04-09T14:36:08;101215.27;;;17.42;52.30
25510;BME280;13413;52.336;21.200;2023-04-09T14:39:02;101214.45;;;17.30;52.33
25510;BME280;13413;52.336;21.200;2023-04-09T14:41:56;101210.23;;;17.30;52.46
25510;BME280;13413;52.336;21.200;2023-04-09T14:44:50;101208.16;;;17.29;52.10
25510;BME280;13413;52.336;21.200;2023-04-09T14:47:47;101204.13;;;17.29;51.99
25510;BME280;13413;52.336;21.200;2023-04-09T14:50:40;101201.80;;;17.30;51.99
25510;BME280;13413;52.336;21.200;2023-04-09T14:53:34;101200.77;;;17.28;51.71
25510;BME280;13413;52.336;21.200;2023-04-09T14:56:28;101197.99;;;17.28;52.12
25510;BME280;13413;52.336;21.200;2023-04-09T14:59:22;101195.77;;;17.49;52.59
25510;BME280;13413;52.336;21.200;2023-04-09T15:02:16;101197.16;;;17.76;52.17
25510;BME280;13413;52.336;21.200;2023-04-09T15:05:11;101193.10;;;17.84;51.40
25510;BME280;13413;52.336;21.200;2023-04-09T15:08:05;101192.78;;;17.74;51.18
25510;BME280;13413;52.336;21.200;2023-04-09T15:10:59;101193.30;;;17.59;51.03
25510;BME280;13413;52.336;21.200;2023-04-09T15:13:53;101192.80;;;17.55;51.23
25510;BME280;13413;52.336;21.200;2023-04-09T15:16:48;101189.30;;;17.70;51.66
25510;BME280;13413;52.336;21.200;2023-04-09T15:19:42;101188.36;;;17.86;51.11
25510;BME280;13413;52.336;21.200;2023-04-09T15:22:36;101190.36;;;17.99;50.95
25510;BME280;13413;52.336;21.200;2023-04-09T15:25:30;101192.59;;;17.94;50.40
25510;BME280;13413;52.336;21.200;2023-04-09T15:28:24;101192.55;;;17.93;50.46
25510;BME280;13413;52.336;21.200;2023-04-09T15:31:18;101188.34;;;17.97;50.11
25510;BME280;13413;52.336;21.200;2023-04-09T15:34:12;101187.54;;;17.89;50.23
25510;BME280;13413;52.336;21.200;2023-04-09T15:37:06;101186.73;;;17.99;50.83
25510;BME280;13413;52.336;21.200;2023-04-09T15:40:00;101183.93;;;18.08;50.07
25510;BME280;13413;52.336;21.200;2023-04-09T15:42:56;101190.67;;;17.90;49.97
25510;BME280;13413;52.336;21.200;2023-04-09T15:45:50;101187.83;;;17.75;50.41
25510;BME280;13413;52.336;21.200;2023-04-09T15:48:44;101191.94;;;17.70;50.75
25510;BME280;13413;52.336;21.200;2023-04-09T15:51:38;101193.13;;;17.64;50.75
25510;BME280;13413;52.336;21.200;2023-04-09T15:54:32;101191.95;;;17.49;50.67
25510;BME280;13413;52.336;21.200;2023-04-09T15:57:26;101192.48;;;17.37;50.84